sensor_id;sensor_type;location;lat;lon;timestamp;temperature;humidity
53035;DHT22;38923;53.236;6.506;2022-10-16T00:01:35;13.00;99.90
53035;DHT22;38923;53.236;6.506;2022-10-16T00:04:02;13.00;99.90
53035;DHT22;38923;53.236;6.506;2022-10-16T00:06:29;13.00;99.90
53035;DHT22;38923;53.236;6.506;2022-10-16T00:08:55;13.00;99.90
53035;DHT22;38923;53.236;6.506;2022-10-16T00:11:27;13.00;99.90
53035;DHT22;38923;53.236;6.506;2022-10-16T00:13:56;13.00;99.90
53035;DHT22;38923;53.236;6.506;2022-10-16T00:16:22;13.00;99.90
53035;DHT22;38923;53.236;6.506;2022-10-16T00:18:48;13.00;99.90
53035;DHT22;38923;53.236;6.506;2022-10-16T00:21:17;13.00;99.90
53035;DHT22;38923;53.236;6.506;2022-10-16T00:23:43;12.90;99.90
53035;DHT22;38923;53.236;6.506;2022-10-16T00:26:15;12.90;99.90
53035;DHT22;38923;53.236;6.506;2022-10-16T00:28:41;13.00;99.90
53035;DHT22;38923;53.236;6.506;2022-10-16T00:31:09;13.00;99.90
53035;DHT22;38923;53.236;6.506;2022-10-16T00:33:36;13.00;99.90
53035;DHT22;38923;53.236;6.506;2022-10-16T00:36:03;13.00;99.90
53035;DHT22;38923;53.236;6.506;2022-10-16T00:38:29;13.00;99.90
53035;DHT22;38923;53.236;6.506;2022-10-16T00:40:55;13.00;99.90
53035;DHT22;38923;53.236;6.506;2022-10-16T00:43:39;12.90;99.90
53035;DHT22;38923;53.236;6.506;2022-10-16T00:46:15;13.00;99.90
53035;DHT22;38923;53.236;6.506;2022-10-16T00:48:42;13.00;99.90
53035;DHT22;38923;53.236;6.506;2022-10-16T00:51:10;13.00;99.90
53035;DHT22;38923;53.236;6.506;2022-10-16T00:53:36;13.00;99.90
53035;DHT22;38923;53.236;6.506;2022-10-16T00:56:03;12.90;99.90
53035;DHT22;38923;53.236;6.506;2022-10-16T00:58:29;12.90;99.90
53035;DHT22;38923;53.236;6.506;2022-10-16T01:00:54;13.00;99.90
53035;DHT22;38923;53.236;6.506;2022-10-16T01:03:27;13.00;99.90
53035;DHT22;38923;53.236;6.506;2022-10-16T01:06:14;13.00;99.90
53035;DHT22;38923;53.236;6.506;2022-10-16T01:11:43;13.00;99.90
53035;DHT22;38923;53.236;6.506;2022-10-16T01:14:28;13.00;99.90
53035;DHT22;38923;53.236;6.506;2022-10-16T01:17:06;13.00;99.90
53035;DHT22;38923;53.236;6.506;2022-10-16T01:20:03;13.00;99.90
53035;DHT22;38923;53.236;6.506;2022-10-16T01:25:22;13.00;99.90
53035;DHT22;38923;53.236;6.506;2022-10-16T01:27:51;13.10;99.90
53035;DHT22;38923;53.236;6.506;2022-10-16T01:30:23;13.00;99.90
53035;DHT22;38923;53.236;6.506;2022-10-16T01:32:55;13.10;99.90
53035;DHT22;38923;53.236;6.506;2022-10-16T01:35:45;13.00;99.90
53035;DHT22;38923;53.236;6.506;2022-10-16T01:38:35;13.00;99.90
53035;DHT22;38923;53.236;6.506;2022-10-16T01:41:11;13.00;99.90
53035;DHT22;38923;53.236;6.506;2022-10-16T01:43:46;13.00;99.90
53035;DHT22;38923;53.236;6.506;2022-10-16T01:46:16;13.00;99.90
53035;DHT22;38923;53.236;6.506;2022-10-16T01:48:43;13.00;99.90
53035;DHT22;38923;53.236;6.506;2022-10-16T01:51:12;13.10;99.90
53035;DHT22;38923;53.236;6.506;2022-10-16T01:53:40;13.10;99.90
53035;DHT22;38923;53.236;6.506;2022-10-16T01:56:09;13.00;99.90
53035;DHT22;38923;53.236;6.506;2022-10-16T01:58:42;13.10;99.90
53035;DHT22;38923;53.236;6.506;2022-10-16T02:01:11;13.10;99.90
53035;DHT22;38923;53.236;6.506;2022-10-16T02:03:40;13.10;99.90
53035;DHT22;38923;53.236;6.506;2022-10-16T02:06:08;14.20;99.90
53035;DHT22;38923;53.236;6.506;2022-10-16T02:08:35;13.10;99.90
53035;DHT22;38923;53.236;6.506;2022-10-16T02:11:01;14.10;99.90
53035;DHT22;38923;53.236;6.506;2022-10-16T02:13:29;13.10;99.90
53035;DHT22;38923;53.236;6.506;2022-10-16T02:15:56;13.10;99.90
53035;DHT22;38923;53.236;6.506;2022-10-16T02:18:22;13.10;99.90
53035;DHT22;38923;53.236;6.506;2022-10-16T02:23:28;13.10;99.90
53035;DHT22;38923;53.236;6.506;2022-10-16T02:25:56;13.10;99.90
53035;DHT22;38923;53.236;6.506;2022-10-16T02:28:28;13.10;99.90
53035;DHT22;38923;53.236;6.506;2022-10-16T02:31:04;13.10;99.90
53035;DHT22;38923;53.236;6.506;2022-10-16T02:33:34;13.10;99.90
53035;DHT22;38923;53.236;6.506;2022-10-16T02:36:02;13.10;99.90
53035;DHT22;38923;53.236;6.506;2022-10-16T02:38:28;13.10;99.90
53035;DHT22;38923;53.236;6.506;2022-10-16T02:40:56;13.10;99.90
53035;DHT22;38923;53.236;6.506;2022-10-16T02:43:22;13.10;99.90
53035;DHT22;38923;53.236;6.506;2022-10-16T02:45:47;13.20;99.90
53035;DHT22;38923;53.236;6.506;2022-10-16T02:48:13;13.20;99.90
53035;DHT22;38923;53.236;6.506;2022-10-16T02:50:39;13.10;99.90
53035;DHT22;38923;53.236;6.506;2022-10-16T02:53:04;13.70;99.90
53035;DHT22;38923;53.236;6.506;2022-10-16T02:55:30;13.20;99.90
53035;DHT22;38923;53.236;6.506;2022-10-16T03:00:22;13.20;99.90
53035;DHT22;38923;53.236;6.506;2022-10-16T03:02:48;13.20;99.90
53035;DHT22;38923;53.236;6.506;2022-10-16T03:05:14;13.20;99.90
53035;DHT22;38923;53.236;6.506;2022-10-16T03:07:40;13.10;99.90
53035;DHT22;38923;53.236;6.506;2022-10-16T03:10:06;13.10;99.90
53035;DHT22;38923;53.236;6.506;2022-10-16T03:12:32;13.10;99.90
53035;DHT22;38923;53.236;6.506;2022-10-16T03:14:58;13.10;99.90
53035;DHT22;38923;53.236;6.506;2022-10-16T03:17:24;13.30;99.90
53035;DHT22;38923;53.236;6.506;2022-10-16T03:19:50;13.10;99.90
53035;DHT22;38923;53.236;6.506;2022-10-16T03:22:15;13.10;99.90
53035;DHT22;38923;53.236;6.506;2022-10-16T03:24:41;13.10;99.90
53035;DHT22;38923;53.236;6.506;2022-10-16T03:27:07;13.10;99.90
53035;DHT22;38923;53.236;6.506;2022-10-16T03:29:33;13.10;99.90
53035;DHT22;38923;53.236;6.506;2022-10-16T03:31:59;13.10;99.90
53035;DHT22;38923;53.236;6.506;2022-10-16T03:34:24;13.10;99.90
53035;DHT22;38923;53.236;6.506;2022-10-16T03:36:51;13.10;99.90
53035;DHT22;38923;53.236;6.506;2022-10-16T03:39:17;13.10;99.90
53035;DHT22;38923;53.236;6.506;2022-10-16T03:41:42;13.50;99.90
53035;DHT22;38923;53.236;6.506;2022-10-16T03:44:08;13.10;99.90
53035;DHT22;38923;53.236;6.506;2022-10-16T03:46:34;13.10;99.90
53035;DHT22;38923;53.236;6.506;2022-10-16T03:49:00;13.10;99.90
53035;DHT22;38923;53.236;6.506;2022-10-16T03:51:25;13.10;99.90
53035;DHT22;38923;53.236;6.506;2022-10-16T03:53:51;13.10;99.90
53035;DHT22;38923;53.236;6.506;2022-10-16T03:56:17;13.20;99.90
53035;DHT22;38923;53.236;6.506;2022-10-16T03:58:43;13.10;99.90
53035;DHT22;38923;53.236;6.506;2022-10-16T04:01:08;13.10;99.90
53035;DHT22;38923;53.236;6.506;2022-10-16T04:03:34;13.10;99.90
53035;DHT22;38923;53.236;6.506;2022-10-16T04:06:00;13.10;99.90
53035;DHT22;38923;53.236;6.506;2022-10-16T04:08:26;13.10;99.90
53035;DHT22;38923;53.236;6.506;2022-10-16T04:10:51;13.00;99.90
53035;DHT22;38923;53.236;6.506;2022-10-16T04:13:17;13.10;99.90
53035;DHT22;38923;53.236;6.506;2022-10-16T04:15:44;13.10;99.90
53035;DHT22;38923;53.236;6.506;2022-10-16T04:18:10;13.00;99.90
53035;DHT22;38923;53.236;6.506;2022-10-16T04:20:36;13.10;99.90
53035;DHT22;38923;53.236;6.506;2022-10-16T04:23:02;13.00;99.90
53035;DHT22;38923;53.236;6.506;2022-10-16T04:25:27;13.00;99.90
53035;DHT22;38923;53.236;6.506;2022-10-16T04:27:54;13.00;99.90
53035;DHT22;38923;53.236;6.506;2022-10-16T04:30:21;13.00;99.90
53035;DHT22;38923;53.236;6.506;2022-10-16T04:32:51;13.00;99.90
53035;DHT22;38923;53.236;6.506;2022-10-16T04:35:18;13.00;99.90
53035;DHT22;38923;53.236;6.506;2022-10-16T04:37:44;13.00;99.90
53035;DHT22;38923;53.236;6.506;2022-10-16T04:40:10;12.90;99.90
53035;DHT22;38923;53.236;6.506;2022-10-16T04:42:35;13.00;99.90
53035;DHT22;38923;53.236;6.506;2022-10-16T04:45:01;13.00;99.90
53035;DHT22;38923;53.236;6.506;2022-10-16T04:47:27;13.00;99.90
53035;DHT22;38923;53.236;6.506;2022-10-16T04:49:53;12.90;99.90
53035;DHT22;38923;53.236;6.506;2022-10-16T04:52:19;12.90;99.90
53035;DHT22;38923;53.236;6.506;2022-10-16T04:54:46;13.00;99.90
53035;DHT22;38923;53.236;6.506;2022-10-16T04:57:12;13.00;99.90
53035;DHT22;38923;53.236;6.506;2022-10-16T04:59:38;12.90;99.90
53035;DHT22;38923;53.236;6.506;2022-10-16T05:02:03;12.90;99.90
53035;DHT22;38923;53.236;6.506;2022-10-16T05:04:29;13.00;99.90
53035;DHT22;38923;53.236;6.506;2022-10-16T05:06:55;12.90;99.90
53035;DHT22;38923;53.236;6.506;2022-10-16T05:09:21;13.00;99.90
53035;DHT22;38923;53.236;6.506;2022-10-16T05:11:46;13.00;99.90
53035;DHT22;38923;53.236;6.506;2022-10-16T05:14:12;12.90;99.90
53035;DHT22;38923;53.236;6.506;2022-10-16T05:16:38;13.00;99.90
53035;DHT22;38923;53.236;6.506;2022-10-16T05:19:03;13.00;99.90
53035;DHT22;38923;53.236;6.506;2022-10-16T05:21:29;13.00;99.90
53035;DHT22;38923;53.236;6.506;2022-10-16T05:23:55;13.00;99.90
53035;DHT22;38923;53.236;6.506;2022-10-16T05:26:21;13.00;99.90
53035;DHT22;38923;53.236;6.506;2022-10-16T05:28:47;13.00;99.90
53035;DHT22;38923;53.236;6.506;2022-10-16T05:33:38;13.00;99.90
53035;DHT22;38923;53.236;6.506;2022-10-16T05:36:06;12.90;99.90
53035;DHT22;38923;53.236;6.506;2022-10-16T05:38:33;13.00;99.90
53035;DHT22;38923;53.236;6.506;2022-10-16T05:40:59;13.00;99.90
53035;DHT22;38923;53.236;6.506;2022-10-16T05:43:27;13.00;99.90
53035;DHT22;38923;53.236;6.506;2022-10-16T05:46:02;13.00;99.90
53035;DHT22;38923;53.236;6.506;2022-10-16T05:48:28;13.00;99.90
53035;DHT22;38923;53.236;6.506;2022-10-16T05:51:03;13.10;99.90
53035;DHT22;38923;53.236;6.506;2022-10-16T05:53:30;13.00;99.90
53035;DHT22;38923;53.236;6.506;2022-10-16T05:55:57;13.00;99.90
53035;DHT22;38923;53.236;6.506;2022-10-16T05:58:23;13.00;99.90
53035;DHT22;38923;53.236;6.506;2022-10-16T06:00:57;13.00;99.90
53035;DHT22;38923;53.236;6.506;2022-10-16T06:03:23;13.00;99.90
53035;DHT22;38923;53.236;6.506;2022-10-16T06:05:50;13.00;99.90
53035;DHT22;38923;53.236;6.506;2022-10-16T06:08:16;13.00;99.90
53035;DHT22;38923;53.236;6.506;2022-10-16T06:10:42;13.00;99.90
53035;DHT22;38923;53.236;6.506;2022-10-16T06:13:09;13.00;99.90
53035;DHT22;38923;53.236;6.506;2022-10-16T06:15:35;13.00;99.90
53035;DHT22;38923;53.236;6.506;2022-10-16T06:18:01;12.90;99.90
53035;DHT22;38923;53.236;6.506;2022-10-16T06:20:26;13.00;99.90
53035;DHT22;38923;53.236;6.506;2022-10-16T06:22:52;12.90;99.90
53035;DHT22;38923;53.236;6.506;2022-10-16T06:25:18;12.90;99.90
53035;DHT22;38923;53.236;6.506;2022-10-16T06:27:43;12.90;99.90
53035;DHT22;38923;53.236;6.506;2022-10-16T06:30:09;13.00;99.90
53035;DHT22;38923;53.236;6.506;2022-10-16T06:32:35;13.00;99.90
53035;DHT22;38923;53.236;6.506;2022-10-16T06:35:01;13.00;99.90
53035;DHT22;38923;53.236;6.506;2022-10-16T06:37:27;13.00;99.90
53035;DHT22;38923;53.236;6.506;2022-10-16T06:39:52;12.90;99.90
53035;DHT22;38923;53.236;6.506;2022-10-16T06:42:18;13.00;99.90
53035;DHT22;38923;53.236;6.506;2022-10-16T06:44:45;13.00;99.90
53035;DHT22;38923;53.236;6.506;2022-10-16T06:47:11;13.00;99.90
53035;DHT22;38923;53.236;6.506;2022-10-16T06:49:36;13.00;99.90
53035;DHT22;38923;53.236;6.506;2022-10-16T06:52:03;13.50;99.90
53035;DHT22;38923;53.236;6.506;2022-10-16T06:54:29;13.00;99.90
53035;DHT22;38923;53.236;6.506;2022-10-16T06:56:54;13.00;99.90
53035;DHT22;38923;53.236;6.506;2022-10-16T06:59:21;13.00;99.90
53035;DHT22;38923;53.236;6.506;2022-10-16T07:01:47;13.20;99.90
53035;DHT22;38923;53.236;6.506;2022-10-16T07:04:13;13.10;99.90
53035;DHT22;38923;53.236;6.506;2022-10-16T07:06:39;13.00;99.90
53035;DHT22;38923;53.236;6.506;2022-10-16T07:09:07;13.10;99.90
53035;DHT22;38923;53.236;6.506;2022-10-16T07:11:33;13.20;99.90
53035;DHT22;38923;53.236;6.506;2022-10-16T07:13:59;13.10;99.90
53035;DHT22;38923;53.236;6.506;2022-10-16T07:16:29;13.10;99.90
53035;DHT22;38923;53.236;6.506;2022-10-16T07:18:57;13.10;99.90
53035;DHT22;38923;53.236;6.506;2022-10-16T07:21:26;12.70;99.90
53035;DHT22;38923;53.236;6.506;2022-10-16T07:23:57;13.20;99.90
53035;DHT22;38923;53.236;6.506;2022-10-16T07:26:24;13.20;99.90
53035;DHT22;38923;53.236;6.506;2022-10-16T07:28:50;13.20;99.90
53035;DHT22;38923;53.236;6.506;2022-10-16T07:31:18;13.20;99.90
53035;DHT22;38923;53.236;6.506;2022-10-16T07:33:46;13.30;99.90
53035;DHT22;38923;53.236;6.506;2022-10-16T07:36:17;13.20;99.90
53035;DHT22;38923;53.236;6.506;2022-10-16T07:38:44;13.20;99.90
53035;DHT22;38923;53.236;6.506;2022-10-16T07:41:16;13.20;99.90
53035;DHT22;38923;53.236;6.506;2022-10-16T07:43:46;13.20;99.90
53035;DHT22;38923;53.236;6.506;2022-10-16T07:46:12;13.20;99.90
53035;DHT22;38923;53.236;6.506;2022-10-16T07:48:38;13.20;99.90
53035;DHT22;38923;53.236;6.506;2022-10-16T07:51:06;13.20;99.90
53035;DHT22;38923;53.236;6.506;2022-10-16T07:53:32;13.20;99.90
53035;DHT22;38923;53.236;6.506;2022-10-16T07:56:03;13.20;99.90
53035;DHT22;38923;53.236;6.506;2022-10-16T07:58:29;13.20;99.90
53035;DHT22;38923;53.236;6.506;2022-10-16T08:00:56;13.20;99.90
53035;DHT22;38923;53.236;6.506;2022-10-16T08:03:22;13.20;99.90
53035;DHT22;38923;53.236;6.506;2022-10-16T08:05:48;13.20;99.90
53035;DHT22;38923;53.236;6.506;2022-10-16T08:08:15;13.50;99.90
53035;DHT22;38923;53.236;6.506;2022-10-16T08:10:41;13.20;99.90
53035;DHT22;38923;53.236;6.506;2022-10-16T08:13:07;13.20;99.90
53035;DHT22;38923;53.236;6.506;2022-10-16T08:15:33;14.10;99.90
53035;DHT22;38923;53.236;6.506;2022-10-16T08:18:01;13.20;99.90
53035;DHT22;38923;53.236;6.506;2022-10-16T08:20:28;13.20;99.90
53035;DHT22;38923;53.236;6.506;2022-10-16T08:22:54;13.20;99.90
53035;DHT22;38923;53.236;6.506;2022-10-16T08:25:22;13.30;99.90
53035;DHT22;38923;53.236;6.506;2022-10-16T08:30:15;13.40;99.90
53035;DHT22;38923;53.236;6.506;2022-10-16T08:32:41;13.50;99.90
53035;DHT22;38923;53.236;6.506;2022-10-16T08:35:09;13.60;99.90
53035;DHT22;38923;53.236;6.506;2022-10-16T08:37:34;13.60;99.90
53035;DHT22;38923;53.236;6.506;2022-10-16T08:40:00;13.70;99.90
53035;DHT22;38923;53.236;6.506;2022-10-16T08:42:39;13.70;99.90
53035;DHT22;38923;53.236;6.506;2022-10-16T08:48:41;13.70;99.90
53035;DHT22;38923;53.236;6.506;2022-10-16T08:51:11;13.70;99.90
53035;DHT22;38923;53.236;6.506;2022-10-16T08:53:56;13.80;99.90
53035;DHT22;38923;53.236;6.506;2022-10-16T08:56:24;13.80;99.90
53035;DHT22;38923;53.236;6.506;2022-10-16T08:58:51;13.90;99.90
53035;DHT22;38923;53.236;6.506;2022-10-16T09:01:20;13.90;99.90
53035;DHT22;38923;53.236;6.506;2022-10-16T09:07:10;14.00;99.90
53035;DHT22;38923;53.236;6.506;2022-10-16T09:12:41;14.00;99.90
53035;DHT22;38923;53.236;6.506;2022-10-16T09:15:27;14.10;99.90
53035;DHT22;38923;53.236;6.506;2022-10-16T09:18:01;14.10;99.90
53035;DHT22;38923;53.236;6.506;2022-10-16T09:20:49;14.20;99.90
53035;DHT22;38923;53.236;6.506;2022-10-16T09:23:25;14.20;99.90
53035;DHT22;38923;53.236;6.506;2022-10-16T09:25:51;14.70;99.90
53035;DHT22;38923;53.236;6.506;2022-10-16T09:28:18;14.20;99.90
53035;DHT22;38923;53.236;6.506;2022-10-16T09:30:45;14.30;99.90
53035;DHT22;38923;53.236;6.506;2022-10-16T09:33:12;14.30;99.90
53035;DHT22;38923;53.236;6.506;2022-10-16T09:35:43;14.30;99.90
53035;DHT22;38923;53.236;6.506;2022-10-16T09:38:25;14.40;99.90
53035;DHT22;38923;53.236;6.506;2022-10-16T09:40:51;14.40;99.90
53035;DHT22;38923;53.236;6.506;2022-10-16T09:43:40;14.40;99.90
53035;DHT22;38923;53.236;6.506;2022-10-16T09:46:19;14.40;99.90
53035;DHT22;38923;53.236;6.506;2022-10-16T09:48:50;14.50;99.90
53035;DHT22;38923;53.236;6.506;2022-10-16T09:53:58;14.60;99.90
53035;DHT22;38923;53.236;6.506;2022-10-16T09:56:32;14.60;99.90
53035;DHT22;38923;53.236;6.506;2022-10-16T09:59:02;14.70;99.90
53035;DHT22;38923;53.236;6.506;2022-10-16T10:01:40;14.70;99.90
53035;DHT22;38923;53.236;6.506;2022-10-16T10:04:07;14.70;99.90
53035;DHT22;38923;53.236;6.506;2022-10-16T10:06:41;14.70;99.90
53035;DHT22;38923;53.236;6.506;2022-10-16T10:09:24;14.80;99.90
53035;DHT22;38923;53.236;6.506;2022-10-16T10:12:01;14.80;99.90
53035;DHT22;38923;53.236;6.506;2022-10-16T10:14:47;14.80;99.90
53035;DHT22;38923;53.236;6.506;2022-10-16T10:17:24;14.80;99.90
53035;DHT22;38923;53.236;6.506;2022-10-16T10:22:43;14.80;99.90
53035;DHT22;38923;53.236;6.506;2022-10-16T10:36:16;15.00;99.90
53035;DHT22;38923;53.236;6.506;2022-10-16T10:44:00;15.10;99.90
53035;DHT22;38923;53.236;6.506;2022-10-16T10:46:49;15.20;99.90
53035;DHT22;38923;53.236;6.506;2022-10-16T10:54:32;15.30;99.90
53035;DHT22;38923;53.236;6.506;2022-10-16T10:57:08;15.30;99.90
53035;DHT22;38923;53.236;6.506;2022-10-16T11:02:45;15.30;99.90
53035;DHT22;38923;53.236;6.506;2022-10-16T11:05:26;15.40;99.90
53035;DHT22;38923;53.236;6.506;2022-10-16T11:08:15;15.30;99.90
53035;DHT22;38923;53.236;6.506;2022-10-16T11:10:47;15.40;99.90
53035;DHT22;38923;53.236;6.506;2022-10-16T11:16:02;15.50;99.90
53035;DHT22;38923;53.236;6.506;2022-10-16T11:18:57;15.40;99.90
53035;DHT22;38923;53.236;6.506;2022-10-16T11:21:24;15.50;99.90
53035;DHT22;38923;53.236;6.506;2022-10-16T11:24:01;15.50;99.90
53035;DHT22;38923;53.236;6.506;2022-10-16T11:26:35;15.50;99.90
53035;DHT22;38923;53.236;6.506;2022-10-16T11:29:05;15.50;99.90
53035;DHT22;38923;53.236;6.506;2022-10-16T11:31:45;15.60;99.90
53035;DHT22;38923;53.236;6.506;2022-10-16T11:34:24;15.60;99.90
53035;DHT22;38923;53.236;6.506;2022-10-16T11:36:56;15.70;99.90
53035;DHT22;38923;53.236;6.506;2022-10-16T11:39:27;15.80;99.90
53035;DHT22;38923;53.236;6.506;2022-10-16T11:41:53;15.70;99.90
53035;DHT22;38923;53.236;6.506;2022-10-16T11:50:01;15.80;99.90
53035;DHT22;38923;53.236;6.506;2022-10-16T11:52:36;15.70;99.90
53035;DHT22;38923;53.236;6.506;2022-10-16T11:55:05;15.70;99.90
53035;DHT22;38923;53.236;6.506;2022-10-16T11:57:48;15.70;99.90
53035;DHT22;38923;53.236;6.506;2022-10-16T12:08:16;15.80;99.90
53035;DHT22;38923;53.236;6.506;2022-10-16T12:10:45;15.80;99.90
53035;DHT22;38923;53.236;6.506;2022-10-16T12:13:38;15.80;99.90
53035;DHT22;38923;53.236;6.506;2022-10-16T12:18:40;15.70;99.90
53035;DHT22;38923;53.236;6.506;2022-10-16T12:21:06;15.60;99.90
53035;DHT22;38923;53.236;6.506;2022-10-16T12:23:37;15.60;99.90
53035;DHT22;38923;53.236;6.506;2022-10-16T12:28:31;15.50;99.90
53035;DHT22;38923;53.236;6.506;2022-10-16T12:31:03;15.40;99.90
53035;DHT22;38923;53.236;6.506;2022-10-16T12:33:33;15.40;99.90
53035;DHT22;38923;53.236;6.506;2022-10-16T12:36:02;15.40;99.90
53035;DHT22;38923;53.236;6.506;2022-10-16T12:38:37;15.40;99.90
53035;DHT22;38923;53.236;6.506;2022-10-16T12:41:06;15.40;99.90
53035;DHT22;38923;53.236;6.506;2022-10-16T12:43:40;15.40;99.90
53035;DHT22;38923;53.236;6.506;2022-10-16T12:48:41;15.60;99.90
53035;DHT22;38923;53.236;6.506;2022-10-16T12:59:38;15.70;99.90
53035;DHT22;38923;53.236;6.506;2022-10-16T13:02:31;15.70;99.90
53035;DHT22;38923;53.236;6.506;2022-10-16T13:10:41;15.30;99.90
53035;DHT22;38923;53.236;6.506;2022-10-16T13:16:12;15.40;99.90
53035;DHT22;38923;53.236;6.506;2022-10-16T13:18:53;15.40;99.90
53035;DHT22;38923;53.236;6.506;2022-10-16T13:29:10;15.50;99.90
53035;DHT22;38923;53.236;6.506;2022-10-16T13:31:38;15.50;99.90
53035;DHT22;38923;53.236;6.506;2022-10-16T13:34:05;15.50;99.90
53035;DHT22;38923;53.236;6.506;2022-10-16T13:39:13;15.60;99.90
53035;DHT22;38923;53.236;6.506;2022-10-16T13:41:40;15.50;99.90
53035;DHT22;38923;53.236;6.506;2022-10-16T13:44:17;15.50;99.90
53035;DHT22;38923;53.236;6.506;2022-10-16T13:46:44;15.50;99.90
53035;DHT22;38923;53.236;6.506;2022-10-16T13:49:16;15.50;99.90
53035;DHT22;38923;53.236;6.506;2022-10-16T13:51:53;15.50;99.90
53035;DHT22;38923;53.236;6.506;2022-10-16T13:54:19;15.60;99.90
53035;DHT22;38923;53.236;6.506;2022-10-16T14:01:49;15.80;99.90
53035;DHT22;38923;53.236;6.506;2022-10-16T14:04:16;15.80;99.90
53035;DHT22;38923;53.236;6.506;2022-10-16T14:06:45;15.80;99.90
53035;DHT22;38923;53.236;6.506;2022-10-16T14:09:22;15.90;99.90
53035;DHT22;38923;53.236;6.506;2022-10-16T14:11:51;15.90;99.90
53035;DHT22;38923;53.236;6.506;2022-10-16T14:14:19;15.90;99.90
53035;DHT22;38923;53.236;6.506;2022-10-16T14:16:45;15.90;99.90
53035;DHT22;38923;53.236;6.506;2022-10-16T14:19:30;15.00;99.90
53035;DHT22;38923;53.236;6.506;2022-10-16T14:21:58;16.00;99.90
53035;DHT22;38923;53.236;6.506;2022-10-16T14:24:34;16.00;99.90
53035;DHT22;38923;53.236;6.506;2022-10-16T14:27:01;16.00;99.90
53035;DHT22;38923;53.236;6.506;2022-10-16T14:29:28;16.00;99.90
53035;DHT22;38923;53.236;6.506;2022-10-16T14:31:56;16.00;99.90
53035;DHT22;38923;53.236;6.506;2022-10-16T14:34:31;15.90;99.90
53035;DHT22;38923;53.236;6.506;2022-10-16T14:37:00;15.90;99.90
53035;DHT22;38923;53.236;6.506;2022-10-16T14:39:30;15.90;99.90
53035;DHT22;38923;53.236;6.506;2022-10-16T14:41:57;15.90;99.90
53035;DHT22;38923;53.236;6.506;2022-10-16T14:44:28;15.90;99.90
53035;DHT22;38923;53.236;6.506;2022-10-16T14:46:54;15.90;99.90
53035;DHT22;38923;53.236;6.506;2022-10-16T14:49:21;15.90;99.90
53035;DHT22;38923;53.236;6.506;2022-10-16T14:51:47;15.80;99.90
53035;DHT22;38923;53.236;6.506;2022-10-16T14:54:15;15.80;99.90
53035;DHT22;38923;53.236;6.506;2022-10-16T14:59:41;15.70;99.90
53035;DHT22;38923;53.236;6.506;2022-10-16T15:02:32;15.70;99.90
53035;DHT22;38923;53.236;6.506;2022-10-16T15:05:16;15.60;99.90
53035;DHT22;38923;53.236;6.506;2022-10-16T15:07:42;15.50;99.90
53035;DHT22;38923;53.236;6.506;2022-10-16T15:10:08;15.50;99.90
53035;DHT22;38923;53.236;6.506;2022-10-16T15:12:34;15.40;99.90
53035;DHT22;38923;53.236;6.506;2022-10-16T15:17:41;15.40;99.90
53035;DHT22;38923;53.236;6.506;2022-10-16T15:20:07;15.40;99.90
53035;DHT22;38923;53.236;6.506;2022-10-16T15:22:33;15.30;99.90
53035;DHT22;38923;53.236;6.506;2022-10-16T15:24:58;15.30;99.90
53035;DHT22;38923;53.236;6.506;2022-10-16T15:27:24;15.30;99.90
53035;DHT22;38923;53.236;6.506;2022-10-16T15:32:16;15.30;99.90
53035;DHT22;38923;53.236;6.506;2022-10-16T15:34:42;14.60;99.90
53035;DHT22;38923;53.236;6.506;2022-10-16T15:37:08;15.20;99.90
53035;DHT22;38923;53.236;6.506;2022-10-16T15:39:34;15.20;99.90
53035;DHT22;38923;53.236;6.506;2022-10-16T15:42:00;15.20;99.90
53035;DHT22;38923;53.236;6.506;2022-10-16T15:44:26;15.20;99.90
53035;DHT22;38923;53.236;6.506;2022-10-16T15:46:55;15.20;99.90
53035;DHT22;38923;53.236;6.506;2022-10-16T15:49:22;15.10;99.90
53035;DHT22;38923;53.236;6.506;2022-10-16T15:51:47;15.10;99.90
53035;DHT22;38923;53.236;6.506;2022-10-16T15:54:13;15.00;99.90
53035;DHT22;38923;53.236;6.506;2022-10-16T15:56:39;14.90;99.90
53035;DHT22;38923;53.236;6.506;2022-10-16T15:59:05;14.90;99.90
53035;DHT22;38923;53.236;6.506;2022-10-16T16:01:35;14.90;99.90
53035;DHT22;38923;53.236;6.506;2022-10-16T16:04:01;14.80;99.90
53035;DHT22;38923;53.236;6.506;2022-10-16T16:06:27;14.80;99.90
53035;DHT22;38923;53.236;6.506;2022-10-16T16:08:53;14.80;99.90
53035;DHT22;38923;53.236;6.506;2022-10-16T16:11:20;14.80;99.90
53035;DHT22;38923;53.236;6.506;2022-10-16T16:13:47;14.80;99.90
53035;DHT22;38923;53.236;6.506;2022-10-16T16:16:15;15.40;99.90
53035;DHT22;38923;53.236;6.506;2022-10-16T16:18:42;14.70;99.90
53035;DHT22;38923;53.236;6.506;2022-10-16T16:21:10;14.70;99.90
53035;DHT22;38923;53.236;6.506;2022-10-16T16:23:36;14.60;99.90
53035;DHT22;38923;53.236;6.506;2022-10-16T16:26:13;14.50;99.90
53035;DHT22;38923;53.236;6.506;2022-10-16T16:28:41;14.50;99.90
53035;DHT22;38923;53.236;6.506;2022-10-16T16:31:08;14.40;99.90
53035;DHT22;38923;53.236;6.506;2022-10-16T16:33:34;14.40;99.90
53035;DHT22;38923;53.236;6.506;2022-10-16T16:36:02;14.40;99.90
53035;DHT22;38923;53.236;6.506;2022-10-16T16:38:29;14.30;99.90
53035;DHT22;38923;53.236;6.506;2022-10-16T16:40:55;14.30;99.90
53035;DHT22;38923;53.236;6.506;2022-10-16T16:43:27;14.30;99.90
53035;DHT22;38923;53.236;6.506;2022-10-16T16:45:53;13.20;99.90
53035;DHT22;38923;53.236;6.506;2022-10-16T16:48:19;14.30;99.90
53035;DHT22;38923;53.236;6.506;2022-10-16T16:50:45;14.30;99.90
53035;DHT22;38923;53.236;6.506;2022-10-16T16:53:11;14.30;99.90
53035;DHT22;38923;53.236;6.506;2022-10-16T16:55:36;14.20;99.90
53035;DHT22;38923;53.236;6.506;2022-10-16T16:58:02;14.30;99.90
53035;DHT22;38923;53.236;6.506;2022-10-16T17:00:29;14.30;99.90
53035;DHT22;38923;53.236;6.506;2022-10-16T17:02:56;14.20;99.90
53035;DHT22;38923;53.236;6.506;2022-10-16T17:05:22;14.20;99.90
53035;DHT22;38923;53.236;6.506;2022-10-16T17:07:48;14.10;99.90
53035;DHT22;38923;53.236;6.506;2022-10-16T17:10:14;14.10;99.90
53035;DHT22;38923;53.236;6.506;2022-10-16T17:12:40;14.00;99.90
53035;DHT22;38923;53.236;6.506;2022-10-16T17:15:06;13.90;99.90
53035;DHT22;38923;53.236;6.506;2022-10-16T17:19:58;13.80;99.90
53035;DHT22;38923;53.236;6.506;2022-10-16T17:22:24;13.80;99.90
53035;DHT22;38923;53.236;6.506;2022-10-16T17:24:50;13.80;99.90
53035;DHT22;38923;53.236;6.506;2022-10-16T17:27:17;13.80;99.90
53035;DHT22;38923;53.236;6.506;2022-10-16T17:29:43;13.70;99.90
53035;DHT22;38923;53.236;6.506;2022-10-16T17:32:18;13.80;99.90
53035;DHT22;38923;53.236;6.506;2022-10-16T17:34:57;13.70;99.90
53035;DHT22;38923;53.236;6.506;2022-10-16T17:37:29;13.80;99.90
53035;DHT22;38923;53.236;6.506;2022-10-16T17:39:55;13.70;99.90
53035;DHT22;38923;53.236;6.506;2022-10-16T17:42:21;13.70;99.90
53035;DHT22;38923;53.236;6.506;2022-10-16T17:44:46;13.60;99.90